createdAt,value
2018-03-27T00:00:09.072Z,19.63
2018-03-27T00:01:09.047Z,19.49
2018-03-27T00:02:09.153Z,19.47
2018-03-27T00:03:09.053Z,19.65
2018-03-27T00:04:09.058Z,19.48
2018-03-27T00:05:09.119Z,19.45
2018-03-27T00:06:09.064Z,19.65
2018-03-27T00:07:09.144Z,19.5
2018-03-27T00:08:09.090Z,19.45
2018-03-27T00:09:09.054Z,19.62
2018-03-27T00:10:09.046Z,19.46
2018-03-27T00:11:09.133Z,19.44
2018-03-27T00:12:09.054Z,19.61
2018-03-27T00:13:09.059Z,19.43
2018-03-27T00:14:09.090Z,19.39
2018-03-27T00:15:09.034Z,19.61
2018-03-27T00:16:09.058Z,19.42
2018-03-27T00:17:12.738Z,19.39
2018-03-27T00:18:09.214Z,19.57
2018-03-27T00:19:09.157Z,19.41
2018-03-27T00:20:09.149Z,19.36
2018-03-27T00:21:09.149Z,19.55
2018-03-27T00:22:09.154Z,19.42
2018-03-27T00:23:09.158Z,19.39
2018-03-27T00:24:09.135Z,19.55
2018-03-27T00:25:09.137Z,19.4
2018-03-27T00:26:09.129Z,19.36
2018-03-27T00:27:09.135Z,19.55
2018-03-27T00:28:09.142Z,19.39
2018-03-27T00:29:09.125Z,19.35
2018-03-27T00:30:09.129Z,19.55
2018-03-27T00:31:09.143Z,19.39
2018-03-27T00:32:09.193Z,19.35
2018-03-27T00:33:09.132Z,19.53
2018-03-27T00:34:09.135Z,19.39
2018-03-27T00:35:09.113Z,19.35
2018-03-27T00:36:09.111Z,19.51
2018-03-27T00:37:09.148Z,19.36
2018-03-27T00:38:09.145Z,19.33
2018-03-27T00:39:09.111Z,19.51
2018-03-27T00:40:09.122Z,19.36
2018-03-27T00:41:09.485Z,19.33
2018-03-27T00:42:09.124Z,19.52
2018-03-27T00:43:09.100Z,19.37
2018-03-27T00:44:09.126Z,19.3
2018-03-27T00:45:09.129Z,19.46
2018-03-27T00:46:09.118Z,19.33
2018-03-27T00:47:09.128Z,19.31
2018-03-27T00:48:09.181Z,19.47
2018-03-27T00:49:09.124Z,19.33
2018-03-27T00:50:09.122Z,19.27
2018-03-27T00:51:09.140Z,19.46
2018-03-27T00:52:09.125Z,19.3
2018-03-27T00:53:09.118Z,19.28
2018-03-27T00:54:09.130Z,19.45
2018-03-27T00:55:09.117Z,19.27
2018-03-27T00:56:09.128Z,19.23
2018-03-27T00:57:09.103Z,19.43
2018-03-27T00:58:09.137Z,19.27
2018-03-27T00:59:09.099Z,19.27
2018-03-27T01:00:09.141Z,19.46
2018-03-27T01:01:09.113Z,19.3
2018-03-27T01:02:09.136Z,19.22
2018-03-27T01:03:09.164Z,19.43
2018-03-27T01:04:09.106Z,19.28
2018-03-27T01:05:09.125Z,19.24
2018-03-27T01:06:09.087Z,19.41
2018-03-27T01:07:09.111Z,19.27
2018-03-27T01:08:09.173Z,19.23
2018-03-27T01:09:09.144Z,19.44
2018-03-27T01:10:09.127Z,19.27
2018-03-27T01:11:09.122Z,19.21
2018-03-27T01:12:09.109Z,19.39
2018-03-27T01:13:09.118Z,19.25
2018-03-27T01:14:09.117Z,19.23
2018-03-27T01:15:09.136Z,19.41
2018-03-27T01:16:09.096Z,19.25
2018-03-27T01:17:09.219Z,19.21
2018-03-27T01:18:09.227Z,19.4
2018-03-27T01:19:09.104Z,19.23
2018-03-27T01:20:09.109Z,19.22
2018-03-27T01:21:09.145Z,19.39
2018-03-27T01:22:09.104Z,19.24
2018-03-27T01:23:09.110Z,19.23
2018-03-27T01:24:09.142Z,19.4
2018-03-27T01:25:09.118Z,19.22
2018-03-27T01:26:09.150Z,19.21
2018-03-27T01:27:09.185Z,19.39
2018-03-27T01:28:09.130Z,19.21
2018-03-27T01:29:09.127Z,19.15
2018-03-27T01:30:09.107Z,19.33
2018-03-27T01:31:09.107Z,19.15
2018-03-27T01:32:09.119Z,19.16
2018-03-27T01:33:09.097Z,19.34
2018-03-27T01:34:09.109Z,19.18
2018-03-27T01:35:09.112Z,19.16
2018-03-27T01:36:09.099Z,19.35
2018-03-27T01:37:09.098Z,19.15
2018-03-27T01:38:09.104Z,19.13
2018-03-27T01:39:09.175Z,19.33
2018-03-27T01:40:09.107Z,19.16
2018-03-27T01:41:09.105Z,19.16
2018-03-27T01:42:09.118Z,19.31
2018-03-27T01:43:09.112Z,19.18
2018-03-27T01:44:09.107Z,19.15
2018-03-27T01:45:09.113Z,19.33
2018-03-27T01:46:09.087Z,19.15
2018-03-27T01:47:09.117Z,19.15
2018-03-27T01:48:09.128Z,19.32
2018-03-27T01:49:09.116Z,19.15
2018-03-27T01:50:09.118Z,19.12
2018-03-27T01:51:09.092Z,19.3
2018-03-27T01:52:09.102Z,19.15
2018-03-27T01:53:09.099Z,19.13
2018-03-27T01:54:09.112Z,19.29
2018-03-27T01:55:08.924Z,19.15
2018-03-27T01:56:09.109Z,19.13
2018-03-27T01:57:09.091Z,19.29
2018-03-27T01:58:09.095Z,19.13
2018-03-27T01:59:09.129Z,19.1
2018-03-27T02:00:09.080Z,19.29
2018-03-27T02:01:09.115Z,19.12
2018-03-27T02:02:09.113Z,19.1
2018-03-27T02:03:09.108Z,19.27
2018-03-27T02:04:09.176Z,19.12
2018-03-27T02:05:09.401Z,19.09
2018-03-27T02:06:09.096Z,19.29
2018-03-27T02:07:09.095Z,19.1
2018-03-27T02:08:09.132Z,19.07
2018-03-27T02:09:09.171Z,19.25
2018-03-27T02:10:09.099Z,19.09
2018-03-27T02:11:09.095Z,19.09
2018-03-27T02:12:09.118Z,19.27
2018-03-27T02:13:09.169Z,19.09
2018-03-27T02:14:09.094Z,19.04
2018-03-27T02:15:09.087Z,19.25
2018-03-27T02:16:09.094Z,19.09
2018-03-27T02:17:09.106Z,19.08
2018-03-27T02:18:09.098Z,19.24
2018-03-27T02:19:09.116Z,19.07
2018-03-27T02:20:09.105Z,19.07
2018-03-27T02:21:09.085Z,19.23
2018-03-27T02:22:09.084Z,19.03
2018-03-27T02:23:09.102Z,19.03
2018-03-27T02:24:09.101Z,19.23
2018-03-27T02:25:09.104Z,19.08
2018-03-27T02:26:09.095Z,19.04
2018-03-27T02:27:09.088Z,19.21
2018-03-27T02:28:09.106Z,19.05
2018-03-27T02:29:09.119Z,19.03
2018-03-27T02:30:09.124Z,19.2
2018-03-27T02:31:09.105Z,19.03
2018-03-27T02:32:09.112Z,19.03
2018-03-27T02:33:09.080Z,19.19
2018-03-27T02:34:09.116Z,19.01
2018-03-27T02:35:09.125Z,19
2018-03-27T02:36:09.195Z,19.19
2018-03-27T02:37:09.140Z,19.04
2018-03-27T02:38:09.096Z,19.01
2018-03-27T02:39:09.143Z,19.18
2018-03-27T02:40:09.130Z,19.02
2018-03-27T02:41:09.133Z,18.97
2018-03-27T02:42:09.075Z,19.16
2018-03-27T02:43:09.082Z,19.03
2018-03-27T02:44:09.089Z,19
2018-03-27T02:45:09.127Z,19.18
2018-03-27T02:46:09.191Z,19
2018-03-27T02:47:09.108Z,18.97
2018-03-27T02:48:09.131Z,19.16
2018-03-27T02:49:09.101Z,18.99
2018-03-27T02:50:09.115Z,18.96
2018-03-27T02:51:09.079Z,19.14
2018-03-27T02:52:09.115Z,18.97
2018-03-27T02:53:09.103Z,18.96
2018-03-27T02:54:09.093Z,19.15
2018-03-27T02:55:09.098Z,18.97
2018-03-27T02:56:09.126Z,18.92
2018-03-27T02:57:09.094Z,19.14
2018-03-27T02:58:09.107Z,18.97
2018-03-27T02:59:09.098Z,18.91
2018-03-27T03:00:09.134Z,19.12
2018-03-27T03:01:09.078Z,18.96
2018-03-27T03:02:09.110Z,18.91
2018-03-27T03:03:09.108Z,19.1
2018-03-27T03:04:09.107Z,18.97
2018-03-27T03:05:09.116Z,18.93
2018-03-27T03:06:09.095Z,19.11
2018-03-27T03:07:09.085Z,18.96
2018-03-27T03:08:09.058Z,18.92
2018-03-27T03:09:09.115Z,19.12
2018-03-27T03:10:09.168Z,18.95
2018-03-27T03:11:09.089Z,18.9
2018-03-27T03:12:09.074Z,19.11
2018-03-27T03:13:09.062Z,18.95
2018-03-27T03:14:09.083Z,18.92
2018-03-27T03:15:09.068Z,19.11
2018-03-27T03:16:09.065Z,18.92
2018-03-27T03:17:09.068Z,18.89
2018-03-27T03:18:09.176Z,19.07
2018-03-27T03:19:09.512Z,18.94
2018-03-27T03:20:09.095Z,18.94
2018-03-27T03:21:09.093Z,19.09
2018-03-27T03:22:09.192Z,18.91
2018-03-27T03:23:09.055Z,18.88
2018-03-27T03:24:09.068Z,19.08
2018-03-27T03:25:09.340Z,18.89
2018-03-27T03:26:09.078Z,18.87
2018-03-27T03:27:09.090Z,19.05
2018-03-27T03:28:09.078Z,18.9
2018-03-27T03:29:09.088Z,18.88
2018-03-27T03:30:09.423Z,19.06
2018-03-27T03:31:09.076Z,18.91
2018-03-27T03:32:09.058Z,18.9
2018-03-27T03:33:09.062Z,19.06
2018-03-27T03:34:09.055Z,18.91
2018-03-27T03:35:09.108Z,18.84
2018-03-27T03:36:09.070Z,19.03
2018-03-27T03:37:09.059Z,18.87
2018-03-27T03:38:09.080Z,18.85
2018-03-27T03:39:09.067Z,19.08
2018-03-27T03:40:09.059Z,18.87
2018-03-27T03:41:09.107Z,18.84
2018-03-27T03:42:09.068Z,19.03
2018-03-27T03:43:09.050Z,18.87
2018-03-27T03:44:09.067Z,18.84
2018-03-27T03:45:09.096Z,19.03
2018-03-27T03:46:09.093Z,18.87
2018-03-27T03:47:09.063Z,18.84
2018-03-27T03:48:09.072Z,19.03
2018-03-27T03:49:09.059Z,18.85
2018-03-27T03:50:09.054Z,18.83
2018-03-27T03:51:09.066Z,19.01
2018-03-27T03:52:09.060Z,18.85
2018-03-27T03:53:09.443Z,18.84
2018-03-27T03:54:09.067Z,19.01
2018-03-27T03:55:09.070Z,18.84
2018-03-27T03:56:09.056Z,18.84
2018-03-27T03:57:09.056Z,19.02
2018-03-27T03:58:09.055Z,18.88
2018-03-27T03:59:09.063Z,18.86
2018-03-27T04:00:09.075Z,19.05
2018-03-27T04:01:09.061Z,18.89
2018-03-27T04:02:09.073Z,18.86
2018-03-27T04:03:09.062Z,19.08
2018-03-27T04:04:09.041Z,18.89
2018-03-27T04:05:09.082Z,18.89
2018-03-27T04:06:09.042Z,19.12
2018-03-27T04:07:09.050Z,18.96
2018-03-27T04:08:09.055Z,18.97
2018-03-27T04:09:09.099Z,19.19
2018-03-27T04:10:09.078Z,19.03
2018-03-27T04:11:09.129Z,19.02
2018-03-27T04:12:09.039Z,19.21
2018-03-27T04:13:09.056Z,19.05
2018-03-27T04:14:09.081Z,19.06
2018-03-27T04:15:09.117Z,19.27
2018-03-27T04:16:09.061Z,19.11
2018-03-27T04:17:09.052Z,19.09
2018-03-27T04:18:09.052Z,19.29
2018-03-27T04:19:09.040Z,19.17
2018-03-27T04:20:09.073Z,19.16
2018-03-27T04:21:09.072Z,19.38
2018-03-27T04:22:09.060Z,19.24
2018-03-27T04:23:09.075Z,19.21
2018-03-27T04:24:09.057Z,19.42
2018-03-27T04:25:09.083Z,19.29
2018-03-27T04:26:09.483Z,19.28
2018-03-27T04:27:09.066Z,19.46
2018-03-27T04:28:09.056Z,19.34
2018-03-27T04:29:09.054Z,19.32
2018-03-27T04:30:09.090Z,19.51
2018-03-27T04:31:09.095Z,19.39
2018-03-27T04:32:09.062Z,19.37
2018-03-27T04:33:09.065Z,19.57
2018-03-27T04:34:09.045Z,19.44
2018-03-27T04:35:09.050Z,19.42
2018-03-27T04:36:09.032Z,19.61
2018-03-27T04:37:09.022Z,19.49
2018-03-27T04:38:09.034Z,19.46
2018-03-27T04:39:09.034Z,19.65
2018-03-27T04:40:09.046Z,19.51
2018-03-27T04:41:09.040Z,19.49
2018-03-27T04:42:09.092Z,19.69
2018-03-27T04:43:08.989Z,19.57
2018-03-27T04:44:09.048Z,19.55
2018-03-27T04:45:09.048Z,19.74
2018-03-27T04:46:09.034Z,19.6
2018-03-27T04:47:09.049Z,19.6
2018-03-27T04:48:09.121Z,19.78
2018-03-27T04:49:09.029Z,19.64
2018-03-27T04:50:09.069Z,19.63
2018-03-27T04:51:09.039Z,19.82
2018-03-27T04:52:09.092Z,19.68
2018-03-27T04:53:09.046Z,19.67
2018-03-27T04:54:09.042Z,19.86
2018-03-27T04:55:09.085Z,19.71
2018-03-27T04:56:09.073Z,19.7
2018-03-27T04:57:09.029Z,19.88
2018-03-27T04:58:09.034Z,19.76
2018-03-27T04:59:09.039Z,19.74
2018-03-27T05:00:09.042Z,19.93
2018-03-27T05:01:09.044Z,19.77
2018-03-27T05:02:09.053Z,19.75
2018-03-27T05:03:09.038Z,19.95
2018-03-27T05:04:09.059Z,19.82
2018-03-27T05:05:09.050Z,19.82
2018-03-27T05:06:09.048Z,20
2018-03-27T05:07:09.095Z,19.86
2018-03-27T05:08:09.046Z,19.84
2018-03-27T05:09:09.031Z,20.02
2018-03-27T05:10:09.040Z,19.9
2018-03-27T05:11:09.062Z,19.89
2018-03-27T05:12:09.027Z,20.06
2018-03-27T05:13:09.255Z,19.93
2018-03-27T05:14:09.031Z,19.91
2018-03-27T05:15:09.075Z,20.09
2018-03-27T05:16:09.050Z,19.94
2018-03-27T05:17:09.072Z,19.94
2018-03-27T05:18:09.038Z,20.13
2018-03-27T05:19:09.153Z,19.98
2018-03-27T05:20:09.119Z,19.97
2018-03-27T05:21:09.069Z,20.16
2018-03-27T05:22:09.090Z,20.03
2018-03-27T05:23:09.059Z,20.01
2018-03-27T05:24:09.091Z,20.18
2018-03-27T05:25:09.025Z,20.06
2018-03-27T05:26:09.067Z,20.03
2018-03-27T05:27:09.043Z,20.23
2018-03-27T05:28:09.055Z,20.09
2018-03-27T05:29:09.053Z,20.06
2018-03-27T05:30:09.036Z,20.25
2018-03-27T05:31:09.088Z,20.12
2018-03-27T05:32:09.051Z,20.1
2018-03-27T05:33:09.041Z,20.27
2018-03-27T05:34:09.026Z,20.14
2018-03-27T05:35:09.043Z,20.13
2018-03-27T05:36:09.020Z,20.3
2018-03-27T05:37:09.038Z,20.12
2018-03-27T05:38:09.036Z,20.06
2018-03-27T05:39:09.053Z,20.28
2018-03-27T05:40:09.054Z,20.18
2018-03-27T05:41:09.033Z,20.15
2018-03-27T05:42:09.110Z,20.35
2018-03-27T05:43:09.042Z,20.16
2018-03-27T05:44:09.085Z,20.14
2018-03-27T05:45:09.076Z,20.31
2018-03-27T05:46:09.026Z,20.22
2018-03-27T05:47:09.082Z,20.21
2018-03-27T05:48:09.074Z,20.4
2018-03-27T05:49:09.030Z,20.25
2018-03-27T05:50:09.044Z,20.09
2018-03-27T05:51:09.084Z,20.24
2018-03-27T05:52:08.862Z,20.09
2018-03-27T05:53:09.023Z,20.09
2018-03-27T05:54:09.024Z,20.3
2018-03-27T05:55:09.052Z,20.18
2018-03-27T05:56:09.172Z,20.17
2018-03-27T05:57:09.026Z,20.34
2018-03-27T05:58:09.024Z,20.2
2018-03-27T05:59:09.022Z,20.19
2018-03-27T06:00:09.004Z,20.37
2018-03-27T06:01:09.029Z,20.22
2018-03-27T06:02:09.011Z,20.21
2018-03-27T06:03:09.032Z,20.39
2018-03-27T06:04:09.018Z,20.28
2018-03-27T06:05:09.465Z,20.24
2018-03-27T06:06:09.013Z,20.41
2018-03-27T06:07:08.996Z,20.29
2018-03-27T06:08:09.026Z,20.26
2018-03-27T06:09:09.031Z,20.45
2018-03-27T06:10:09.049Z,20.29
2018-03-27T06:11:09.019Z,20.28
2018-03-27T06:12:09.011Z,20.45
2018-03-27T06:13:09.057Z,20.3
2018-03-27T06:14:09.075Z,20.28
2018-03-27T06:15:09.017Z,20.46
2018-03-27T06:16:09.050Z,20.31
2018-03-27T06:17:09.029Z,20.3
2018-03-27T06:18:09.020Z,20.46
2018-03-27T06:19:08.998Z,20.33
2018-03-27T06:20:09.032Z,20.29
2018-03-27T06:21:09.041Z,20.45
2018-03-27T06:22:09.015Z,20.3
2018-03-27T06:23:09.014Z,20.28
2018-03-27T06:24:09.009Z,20.46
2018-03-27T06:25:09.018Z,20.3
2018-03-27T06:26:09.027Z,20.29
2018-03-27T06:27:09.017Z,20.47
2018-03-27T06:28:09.008Z,20.34
2018-03-27T06:29:09.037Z,20.3
2018-03-27T06:30:09.018Z,20.47
2018-03-27T06:31:09.046Z,20.33
2018-03-27T06:32:08.999Z,20.31
2018-03-27T06:33:09.029Z,20.47
2018-03-27T06:34:09.013Z,20.34
2018-03-27T06:35:09.083Z,20.29
2018-03-27T06:36:09.003Z,20.47
2018-03-27T06:37:09.014Z,20.34
2018-03-27T06:38:09.019Z,20.32
2018-03-27T06:39:08.998Z,20.5
2018-03-27T06:40:09.007Z,20.34
2018-03-27T06:41:09.030Z,20.33
2018-03-27T06:42:09.639Z,20.5
2018-03-27T06:43:09.034Z,20.36
2018-03-27T06:44:08.998Z,20.34
2018-03-27T06:45:10.048Z,20.52
2018-03-27T06:46:09.035Z,20.37
2018-03-27T06:47:09.020Z,20.35
2018-03-27T06:48:09.062Z,20.53
2018-03-27T06:49:09.002Z,20.4
2018-03-27T06:50:09.009Z,20.38
2018-03-27T06:51:08.981Z,20.55
2018-03-27T06:52:08.992Z,20.41
2018-03-27T06:53:09.005Z,20.38
2018-03-27T06:54:09.023Z,20.57
2018-03-27T06:55:09.000Z,20.42
2018-03-27T06:56:09.031Z,20.4
2018-03-27T06:57:09.031Z,20.59
2018-03-27T06:58:09.038Z,20.43
2018-03-27T06:59:09.334Z,20.42
2018-03-27T07:00:09.023Z,20.59
2018-03-27T07:01:08.987Z,20.46
2018-03-27T07:02:09.051Z,20.42
2018-03-27T07:03:09.076Z,20.6
2018-03-27T07:04:09.055Z,20.46
2018-03-27T07:05:09.070Z,20.45
2018-03-27T07:06:09.138Z,20.63
2018-03-27T07:07:09.083Z,20.48
2018-03-27T07:08:09.119Z,20.46
2018-03-27T07:09:09.081Z,20.65
2018-03-27T07:10:09.132Z,20.5
2018-03-27T07:11:09.107Z,20.47
2018-03-27T07:12:09.111Z,20.66
2018-03-27T07:13:09.150Z,20.51
2018-03-27T07:14:09.132Z,20.5
2018-03-27T07:15:09.136Z,20.68
2018-03-27T07:16:09.250Z,20.54
2018-03-27T07:17:09.094Z,20.53
2018-03-27T07:18:09.254Z,20.71
2018-03-27T07:19:09.069Z,20.55
2018-03-27T07:20:09.152Z,20.56
2018-03-27T07:21:09.075Z,20.72
2018-03-27T07:22:09.027Z,20.58
2018-03-27T07:23:09.071Z,20.56
2018-03-27T07:24:09.005Z,20.74
2018-03-27T07:25:09.019Z,20.6
2018-03-27T07:26:09.006Z,20.58
2018-03-27T07:27:08.985Z,20.76
2018-03-27T07:28:08.994Z,20.61
2018-03-27T07:29:09.028Z,20.6
2018-03-27T07:30:09.038Z,20.77
2018-03-27T07:31:08.989Z,20.63
2018-03-27T07:32:09.043Z,20.59
2018-03-27T07:33:09.034Z,20.77
2018-03-27T07:34:09.049Z,20.65
2018-03-27T07:35:08.990Z,20.65
2018-03-27T07:36:08.983Z,20.83
2018-03-27T07:37:08.981Z,20.7
2018-03-27T07:38:09.018Z,20.71
2018-03-27T07:39:09.067Z,20.85
2018-03-27T07:40:09.060Z,20.73
2018-03-27T07:41:09.040Z,20.71
2018-03-27T07:42:09.008Z,20.91
2018-03-27T07:43:08.968Z,20.77
2018-03-27T07:44:09.059Z,20.76
2018-03-27T07:45:09.012Z,20.94
2018-03-27T07:46:08.997Z,20.79
2018-03-27T07:47:09.027Z,20.77
2018-03-27T07:48:08.980Z,20.95
2018-03-27T07:49:09.015Z,20.78
2018-03-27T07:50:09.021Z,20.8
2018-03-27T07:51:08.985Z,20.97
2018-03-27T07:52:08.999Z,20.83
2018-03-27T07:53:09.040Z,20.81
2018-03-27T07:54:08.995Z,20.97
2018-03-27T07:55:09.009Z,20.84
2018-03-27T07:56:08.990Z,20.83
2018-03-27T07:57:08.991Z,20.96
2018-03-27T07:58:08.987Z,20.83
2018-03-27T07:59:09.017Z,20.79
2018-03-27T08:00:08.982Z,20.97
2018-03-27T08:01:08.998Z,20.83
2018-03-27T08:02:08.993Z,20.8
2018-03-27T08:03:08.986Z,20.96
2018-03-27T08:04:08.979Z,20.81
2018-03-27T08:05:08.920Z,20.79
2018-03-27T08:06:09.038Z,20.95
2018-03-27T08:07:08.969Z,20.81
2018-03-27T08:08:08.981Z,20.8
2018-03-27T08:09:08.984Z,20.95
2018-03-27T08:10:08.978Z,20.77
2018-03-27T08:11:09.579Z,20.76
2018-03-27T08:12:09.040Z,20.94
2018-03-27T08:13:08.990Z,20.79
2018-03-27T08:14:08.953Z,20.79
2018-03-27T08:15:08.998Z,20.94
2018-03-27T08:16:08.982Z,20.8
2018-03-27T08:17:08.942Z,20.78
2018-03-27T08:18:09.015Z,20.94
2018-03-27T08:19:08.964Z,20.81
2018-03-27T08:20:08.991Z,20.76
2018-03-27T08:21:09.021Z,20.93
2018-03-27T08:22:08.982Z,20.78
2018-03-27T08:23:09.004Z,20.73
2018-03-27T08:24:09.894Z,20.87
2018-03-27T08:25:08.968Z,20.72
2018-03-27T08:26:08.971Z,20.73
2018-03-27T08:27:08.990Z,20.93
2018-03-27T08:28:09.055Z,20.79
2018-03-27T08:29:08.993Z,20.79
2018-03-27T08:30:08.975Z,20.96
2018-03-27T08:31:08.991Z,20.83
2018-03-27T08:32:08.977Z,20.86
2018-03-27T08:33:09.019Z,21.02
2018-03-27T08:34:08.974Z,20.88
2018-03-27T08:35:08.977Z,20.85
2018-03-27T08:36:08.957Z,21.02
2018-03-27T08:37:08.966Z,20.86
2018-03-27T08:38:08.957Z,20.85
2018-03-27T08:39:09.268Z,21.01
2018-03-27T08:40:09.004Z,20.87
2018-03-27T08:41:08.962Z,20.85
2018-03-27T08:42:09.758Z,20.9
2018-03-27T08:43:08.967Z,20.78
2018-03-27T08:44:08.970Z,20.83
2018-03-27T08:45:08.973Z,21.01
2018-03-27T08:46:12.362Z,20.89
2018-03-27T08:47:09.012Z,20.89
2018-03-27T08:48:09.080Z,21.07
2018-03-27T08:49:08.963Z,20.94
2018-03-27T08:50:09.012Z,20.93
2018-03-27T08:51:08.968Z,21.08
2018-03-27T08:52:13.250Z,20.96
2018-03-27T08:53:08.963Z,20.89
2018-03-27T08:54:09.117Z,21.07
2018-03-27T08:55:09.004Z,20.93
2018-03-27T08:56:09.329Z,20.87
2018-03-27T08:57:08.967Z,21.07
2018-03-27T08:58:08.991Z,20.94
2018-03-27T08:59:09.000Z,20.92
2018-03-27T09:00:08.965Z,21.11
2018-03-27T09:01:08.955Z,20.96
2018-03-27T09:02:08.978Z,20.93
2018-03-27T09:03:08.966Z,21.11
2018-03-27T09:04:08.961Z,20.95
2018-03-27T09:05:08.965Z,20.94
2018-03-27T09:06:08.948Z,21.11
2018-03-27T09:07:09.020Z,20.95
2018-03-27T09:08:08.948Z,20.93
2018-03-27T09:09:09.088Z,21.11
2018-03-27T09:10:08.948Z,20.94
2018-03-27T09:11:08.970Z,20.92
2018-03-27T09:12:09.120Z,21.09
2018-03-27T09:13:09.252Z,20.92
2018-03-27T09:14:08.967Z,20.91
2018-03-27T09:15:09.187Z,21.09
2018-03-27T09:16:09.154Z,20.92
2018-03-27T09:17:09.033Z,20.89
2018-03-27T09:18:08.955Z,21.07
2018-03-27T09:19:09.009Z,20.92
2018-03-27T09:20:08.959Z,20.91
2018-03-27T09:21:09.075Z,21.07
2018-03-27T09:22:09.069Z,20.92
2018-03-27T09:23:08.947Z,20.89
2018-03-27T09:24:09.002Z,21.07
2018-03-27T09:25:08.974Z,20.92
2018-03-27T09:26:08.964Z,20.87
2018-03-27T09:27:08.959Z,21.06
2018-03-27T09:28:08.966Z,20.9
2018-03-27T09:29:08.962Z,20.85
2018-03-27T09:30:08.948Z,21.03
2018-03-27T09:31:09.017Z,20.86
2018-03-27T09:32:08.974Z,20.85
2018-03-27T09:33:08.977Z,21.04
2018-03-27T09:34:08.962Z,20.89
2018-03-27T09:35:08.952Z,20.84
2018-03-27T09:36:08.947Z,21.02
2018-03-27T09:37:08.969Z,20.88
2018-03-27T09:38:08.972Z,20.85
2018-03-27T09:39:09.152Z,21.01
2018-03-27T09:40:08.959Z,20.85
2018-03-27T09:41:08.964Z,20.82
2018-03-27T09:42:09.017Z,21.01
2018-03-27T09:43:09.024Z,20.86
2018-03-27T09:44:08.950Z,20.83
2018-03-27T09:45:08.942Z,21.01
2018-03-27T09:46:08.949Z,20.83
2018-03-27T09:47:08.953Z,20.84
2018-03-27T09:48:09.112Z,21.01
2018-03-27T09:49:09.028Z,20.85
2018-03-27T09:50:08.957Z,20.85
2018-03-27T09:51:08.988Z,21.03
2018-03-27T09:52:08.984Z,20.88
2018-03-27T09:53:08.940Z,20.83
2018-03-27T09:54:08.989Z,21.03
2018-03-27T09:55:08.964Z,20.87
2018-03-27T09:56:08.940Z,20.87
2018-03-27T09:57:08.951Z,21.04
2018-03-27T09:58:08.940Z,20.89
2018-03-27T09:59:08.970Z,20.87
2018-03-27T10:00:08.958Z,21.06
2018-03-27T10:01:08.942Z,20.89
2018-03-27T10:02:08.950Z,20.88
2018-03-27T10:03:08.959Z,21.07
2018-03-27T10:04:08.950Z,20.89
2018-03-27T10:05:08.945Z,20.86
2018-03-27T10:06:08.957Z,21.07
2018-03-27T10:07:08.978Z,20.9
2018-03-27T10:08:08.959Z,20.89
2018-03-27T10:09:08.981Z,21.09
2018-03-27T10:10:08.955Z,20.95
2018-03-27T10:11:09.006Z,20.94
2018-03-27T10:12:08.980Z,21.12
2018-03-27T10:13:08.952Z,20.97
2018-03-27T10:14:08.955Z,20.94
2018-03-27T10:15:08.934Z,21.12
2018-03-27T10:16:08.948Z,20.98
2018-03-27T10:17:08.955Z,20.96
2018-03-27T10:18:08.952Z,21.08
2018-03-27T10:19:08.958Z,20.91
2018-03-27T10:20:09.090Z,20.88
2018-03-27T10:21:08.954Z,21.06
2018-03-27T10:22:09.253Z,20.9
2018-03-27T10:23:08.993Z,20.89
2018-03-27T10:24:08.958Z,21.07
2018-03-27T10:25:08.926Z,20.93
2018-03-27T10:26:09.041Z,20.92
2018-03-27T10:27:08.970Z,21.09
2018-03-27T10:28:08.937Z,20.93
2018-03-27T10:29:08.965Z,20.94
2018-03-27T10:30:08.926Z,21.09
2018-03-27T10:31:08.949Z,20.93
2018-03-27T10:32:08.961Z,20.9
2018-03-27T10:33:09.016Z,21.08
2018-03-27T10:34:08.965Z,20.93
2018-03-27T10:35:08.932Z,20.9
2018-03-27T10:36:08.936Z,21.07
2018-03-27T10:37:08.951Z,20.92
2018-03-27T10:38:08.936Z,20.91
2018-03-27T10:39:08.944Z,21.09
2018-03-27T10:40:08.999Z,20.93
2018-03-27T10:41:08.923Z,20.9
2018-03-27T10:42:08.968Z,21.02
2018-03-27T10:43:08.942Z,20.88
2018-03-27T10:44:08.953Z,20.89
2018-03-27T10:45:08.945Z,21.08
2018-03-27T10:46:08.981Z,20.95
2018-03-27T10:47:08.959Z,20.9
2018-03-27T10:48:08.927Z,21.09
2018-03-27T10:49:08.996Z,20.94
2018-03-27T10:50:11.147Z,20.9
2018-03-27T10:51:08.969Z,21.13
2018-03-27T10:51:41.357Z,21.17
2018-03-27T10:52:41.350Z,21.21
2018-03-27T10:53:41.326Z,21.12
2018-03-27T10:54:41.358Z,21.06
2018-03-27T10:55:41.576Z,21.05
2018-03-27T10:56:41.339Z,21.06
2018-03-27T10:57:41.344Z,21.16
2018-03-27T10:58:41.335Z,21.24
2018-03-27T10:59:41.385Z,21.24
2018-03-27T11:00:41.321Z,21.31
2018-03-27T11:01:41.324Z,21.39
2018-03-27T11:02:41.375Z,21.37
2018-03-27T11:03:41.343Z,21.45
2018-03-27T11:04:41.434Z,21.49
2018-03-27T11:05:41.347Z,21.52
2018-03-27T11:06:41.365Z,21.54
2018-03-27T11:07:41.373Z,21.59
2018-03-27T11:08:41.399Z,21.59
2018-03-27T11:09:41.436Z,21.63
2018-03-27T11:10:41.363Z,21.73
2018-03-27T11:11:41.357Z,21.67
2018-03-27T11:12:41.299Z,21.71
2018-03-27T11:13:41.536Z,21.81
2018-03-27T11:14:41.387Z,21.79
2018-03-27T11:15:41.434Z,21.8
2018-03-27T11:16:41.427Z,21.89
2018-03-27T11:17:41.336Z,21.85
2018-03-27T11:18:41.330Z,21.88
2018-03-27T11:27:32.533Z,22.06
2018-03-27T11:28:13.316Z,22.07
2018-03-27T11:29:13.660Z,21.97
2018-03-27T11:30:13.303Z,22
2018-03-27T11:31:13.275Z,21.96
2018-03-27T11:32:13.307Z,22.04
2018-03-27T11:33:13.274Z,21.93
2018-03-27T11:34:13.273Z,21.89
2018-03-27T11:35:13.257Z,22
2018-03-27T11:36:13.312Z,22
2018-03-27T11:37:13.299Z,22
2018-03-27T11:38:13.264Z,22.03
2018-03-27T11:39:13.279Z,22
2018-03-27T11:40:13.250Z,21.92
2018-03-27T11:41:13.255Z,22
2018-03-27T11:42:13.252Z,22
2018-03-27T11:43:13.292Z,21.92
2018-03-27T11:44:13.251Z,22
2018-03-27T11:45:13.263Z,21.95
2018-03-27T11:46:13.269Z,21.9
2018-03-27T11:47:13.251Z,21.98
2018-03-27T11:48:13.234Z,21.89
2018-03-27T11:49:13.278Z,21.87
2018-03-27T11:50:13.258Z,21.99
2018-03-27T11:51:13.264Z,21.94
2018-03-27T11:52:13.298Z,21.91
2018-03-27T11:53:13.242Z,21.95
2018-03-27T11:54:13.237Z,21.89
2018-03-27T11:55:13.289Z,21.87
2018-03-27T11:56:13.271Z,21.93
2018-03-27T11:57:13.319Z,21.89
2018-03-27T11:58:13.300Z,21.87
2018-03-27T11:59:13.308Z,21.95
2018-03-27T12:00:13.258Z,21.89
2018-03-27T12:01:13.270Z,21.83
2018-03-27T12:02:13.260Z,21.92
2018-03-27T12:03:13.259Z,21.78
2018-03-27T12:04:13.241Z,21.78
2018-03-27T12:05:13.519Z,21.86
2018-03-27T12:06:13.245Z,21.78
2018-03-27T12:07:13.251Z,21.77
2018-03-27T12:08:13.250Z,21.86
2018-03-27T12:09:13.315Z,21.77
2018-03-27T12:10:13.363Z,21.76
2018-03-27T12:11:13.266Z,21.83
2018-03-27T12:12:13.222Z,21.77
2018-03-27T12:13:13.298Z,21.77
2018-03-27T12:14:13.257Z,21.85
2018-03-27T12:15:13.586Z,21.75
2018-03-27T12:16:13.319Z,21.74
2018-03-27T12:17:13.226Z,21.83
2018-03-27T12:18:13.275Z,21.71
2018-03-27T12:19:13.263Z,21.78
2018-03-27T12:20:13.264Z,21.94
2018-03-27T12:21:13.256Z,21.97
2018-03-27T12:22:13.277Z,22
2018-03-27T12:23:13.223Z,22.09
2018-03-27T12:24:13.241Z,22.05
2018-03-27T12:25:13.275Z,22.04
2018-03-27T12:26:13.263Z,22.13
2018-03-27T12:27:13.277Z,22.1
2018-03-27T12:28:13.296Z,22.09
2018-03-27T12:29:13.257Z,22.27
2018-03-27T12:30:13.258Z,22.2
2018-03-27T12:31:13.512Z,22.26
2018-03-27T12:32:13.272Z,22.27
2018-03-27T12:33:13.258Z,22.28
2018-03-27T12:34:13.274Z,22.29
2018-03-27T12:35:13.216Z,22.32
2018-03-27T12:36:13.249Z,22.31
2018-03-27T12:37:13.245Z,22.34
2018-03-27T12:38:13.261Z,22.35
2018-03-27T12:39:13.234Z,22.35
2018-03-27T12:40:13.254Z,22.34
2018-03-27T12:41:13.219Z,22.4
2018-03-27T12:42:13.545Z,22.35
2018-03-27T12:43:13.247Z,22.39
2018-03-27T12:44:13.245Z,22.29
2018-03-27T12:45:13.249Z,22.21
2018-03-27T12:46:13.272Z,22.19
2018-03-27T12:47:13.231Z,22.21
2018-03-27T12:48:13.222Z,22.21
2018-03-27T12:49:13.267Z,22.25
2018-03-27T12:50:13.239Z,22.33
2018-03-27T12:51:13.251Z,22.26
2018-03-27T12:52:13.230Z,22.22
2018-03-27T12:53:13.506Z,22.24
2018-03-27T12:54:13.239Z,22.2
2018-03-27T12:55:13.238Z,22.12
2018-03-27T12:56:13.291Z,22.16
2018-03-27T12:57:13.233Z,22.12
2018-03-27T12:58:13.257Z,22.1
2018-03-27T12:59:13.272Z,22.11
2018-03-27T13:00:13.242Z,22.08
2018-03-27T13:01:13.246Z,22.12
2018-03-27T13:02:13.232Z,22.08